Strona główna
METAR-TAF:

METAR-TAF

Lotnisko :

Sofia, Bułgaria

Port lotniczy Sofia

Szerokość geograficzna: 42-39N, Długość geograficzna: 023-23E, wysokość: 586 m

Aktualna obserwacja pogody

Raport powstał 13 minut temu, godzina 11:30 UTC
Wiatr 18 kt od zachodnio-północny zachód w porywach dochodzący do 31 kt
Temperatura 5°C
Wilgotność 56%
Ciśnienie 1010 hPa
Widzialność 10 km lub więcej
Rozproszone chmury na wysokości 3400 ft

METAR: LBSF 181130Z 29018G31KT 9999 SCT034 05/M03 Q1010 NOSIG

czas: 13:43 (11:43 UTC)

Prognoza

Raport powstał 43 minut temu, godzina 11:00 UTC
Prognoza ważna od 18 godzina 12 UTC do 19 godzina 12 UTC
Wiatr 24 kt od zachód w porywach dochodzący do 36 kt
Widzialność 10 km lub więcej
Rozproszone chmury na wysokości 2500 ft
Rozproszone chmury na wysokości 5000 ft
Stopniowe zmiany
od 18 godzina 18 UTC do 18 godzina 20 UTC
Wiatr 16 kt od zachód

TAF: LBSF 181100Z 1812/1912 28024G36KT 9999 SCT025 SCT050 BECMG 1818/1820 28016KT

Obserwacja i prognoza pogody dla ponad 4000 lotnisk (raport METAR i TAF).

Dostępne stacje oznaczono żółtymi i czerwonymi punktami na mapie.

Najedź kursorem aby zobaczyć nazwę stacji.

Kliknij aby zobaczyć obserwacje i prognozy pogody.

Aby zmienić mapę: kliknij na zielony przycisk z czarnym krzyżykiem, aby powiększyć; na zielony przycisk z myślnikiem, aby pomniejszyć; na zielone strzałki, aby przejść do map sąsiednich.


METAR-TAF: